Serene Sea — D5HI4 — position and weather

sailwx.info

Track history (hours):
 
Tides and Currents Weather Stations Pressure Air Temp Water Temp Dewpoint Dewpoint Depression Visibility Wind Speed Wind Dir Waves Ship Positions

Serene Sea

Last reported at 2018-Jun-21 17:45 UTC. Time now 2018-Jun-21 18:04 UTC.
Position N 37°32' W 123°27'.

Length 229 m; draft 9.2 m.

Type: Tanker. MMSI: 636016696.

Date/timePositionNaut miles runAvg speedWind from/ knotsBaromVisibWave heightAir tempDewpointWater temp
2018-Jun-21 17:45N 37°32' W 123°27'0 1.3
2018-Jun-21 17:25N 37°32' W 123°27'1 1.3
2018-Jun-21 17:00N 37°32' W 123°28'1 1.4
2018-Jun-21 16:30N 37°32' W 123°29'1 1.3
2018-Jun-21 16:00N 37°32' W 123°30'1 1.3
2018-Jun-21 15:30N 37°32' W 123°31'1 1.3
2018-Jun-21 15:00N 37°32' W 123°31'1 1.3
2018-Jun-21 14:28N 37°32' W 123°32'1 1.2
2018-Jun-21 14:00N 37°33' W 123°33'1 1.2
2018-Jun-21 13:30N 37°33' W 123°34'2 3.8
2018-Jun-21 13:00N 37°31' W 123°33'4 8.8
2018-Jun-21 12:30N 37°27' W 123°29'6 8.8
2018-Jun-21 11:50N 37°23' W 123°24'4 8.7
2018-Jun-21 11:21N 37°20' W 123°21'2 6.3
2018-Jun-21 11:00N 37°18' W 123°19'1 1.6
2018-Jun-21 10:26N 37°18' W 123°18'1 1.5
2018-Jun-21 10:00N 37°19' W 123°18'1 1.6
2018-Jun-21 09:30N 37°20' W 123°17'1 1.5
2018-Jun-21 09:00N 37°20' W 123°17'1 1.7
2018-Jun-21 08:30N 37°21' W 123°16'1 1.8
2018-Jun-21 08:00N 37°22' W 123°16'1 1.8
2018-Jun-21 07:30N 37°22' W 123°15'1 1.9
2018-Jun-21 07:00N 37°23' W 123°15'1 1.9
2018-Jun-21 06:30N 37°24' W 123°14'1 1.9
2018-Jun-21 06:00N 37°25' W 123°14'1 1.9
2018-Jun-21 05:30N 37°26' W 123°13'1 1.8
2018-Jun-21 04:58N 37°27' W 123°12'1 2.6
2018-Jun-21 04:27N 37°28' W 123°13'4 9.6
2018-Jun-21 04:00N 37°28' W 123°19'5 9.7
2018-Jun-21 03:29N 37°28' W 123°25'5 9.8
2018-Jun-21 03:00N 37°28' W 123°31'5 9.9
2018-Jun-21 02:30N 37°28' W 123°37'5 8.9
2018-Jun-21 01:59N 37°30' W 123°42'510.1
2018-Jun-21 01:29N 37°35' W 123°45'510.1
2018-Jun-21 01:00N 37°39' W 123°48'5 9.8
2018-Jun-21 00:30N 37°43' W 123°52'510.2
2018-Jun-21 00:00N 37°47' W 123°55'510.3
2018-Jun-20 23:30N 37°52' W 123°59'510.6
2018-Jun-20 23:00N 37°56' W 124°02'510.8
2018-Jun-20 22:30N 38°01' W 124°06'510.4
2018-Jun-20 21:59N 38°06' W 124°09'510.1
2018-Jun-20 21:30N 38°10' W 124°12'510.1
2018-Jun-20 21:00N 38°14' W 124°16'510.3
2018-Jun-20 20:30N 38°18' W 124°19'510.6
2018-Jun-20 20:00N 38°23' W 124°22'510.7
2018-Jun-20 19:30N 38°28' W 124°26'510.6
2018-Jun-20 19:00N 38°32' W 124°30'510.1
2018-Jun-20 18:30N 38°36' W 124°33'30 8.7
2018-Jun-20 15:03N 39°02' W 124°53'612.6
2018-Jun-20 14:33N 39°07' W 124°57'312.4
2018-Jun-20 14:21N 39°09' W 124°59'912.4
2018-Jun-20 13:37N 39°17' W 125°05'312.4
2018-Jun-20 13:21N 39°20' W 125°07'812.0
2018-Jun-20 12:40N 39°27' W 125°13'211.9
2018-Jun-20 12:30N 39°29' W 125°14'1312.1
2018-Jun-20 11:25N 39°40' W 125°23'512.4
2018-Jun-20 11:00N 39°44' W 125°27'712.1
2018-Jun-20 10:25N 39°51' W 125°28'1712.1
2018-Jun-20 09:00N 40°08' W 125°30'16712.6
2018-Jun-19 19:46N 42°54' W 125°53'313.3
2018-Jun-19 19:30N 42°57' W 125°54'813.4
2018-Jun-19 18:56N 43°05' W 125°55'612.9
2018-Jun-19 18:30N 43°11' W 125°56'1013.3
2018-Jun-19 17:45N 43°20' W 125°57'313.1
2018-Jun-19 17:30N 43°24' W 125°58'713.1
2018-Jun-19 17:00N 43°30' W 125°59'1213.3
2018-Jun-19 16:07N 43°42' W 126°01'113.5
2018-Jun-19 16:00N 43°43' W 126°01'1013.0
2018-Jun-19 15:15N 43°53' W 126°03'313.0
2018-Jun-19 15:00N 43°56' W 126°03'913.4
2018-Jun-19 14:22N 44°05' W 126°04'513.8
2018-Jun-19 14:00N 44°10' W 126°05'713.3
2018-Jun-19 13:30N 44°16' W 126°06'612.8
2018-Jun-19 13:00N 44°23' W 126°07'713.1
2018-Jun-19 12:30N 44°29' W 126°08'713.1
2018-Jun-19 12:00N 44°36' W 126°08'713.3
2018-Jun-19 11:28N 44°43' W 126°09'612.9
2018-Jun-19 11:00N 44°49' W 126°10'712.9
2018-Jun-19 10:29N 44°55' W 126°11'613.2
2018-Jun-19 10:00N 45°02' W 126°12'713.1
2018-Jun-19 09:30N 45°08' W 126°12'713.0
2018-Jun-19 09:00N 45°15' W 126°12'613.0
2018-Jun-19 08:30N 45°21' W 126°12'612.9
2018-Jun-19 08:00N 45°28' W 126°12'713.1
2018-Jun-19 07:30N 45°34' W 126°12'713.5
2018-Jun-19 06:59N 45°41' W 126°12'613.3
2018-Jun-19 06:30N 45°48' W 126°12'713.6
2018-Jun-19 06:00N 45°54' W 126°12'713.5
2018-Jun-19 05:30N 46°01' W 126°12'713.3
2018-Jun-19 05:00N 46°08' W 126°12'913.4
2018-Jun-19 04:18N 46°17' W 126°12'413.3
2018-Jun-19 04:00N 46°21' W 126°12'613.0
2018-Jun-19 03:30N 46°28' W 126°12'612.9
2018-Jun-19 03:00N 46°34' W 126°12'613.0
2018-Jun-19 02:30N 46°41' W 126°12'713.0
2018-Jun-19 01:59N 46°48' W 126°12'612.9
2018-Jun-19 01:30N 46°54' W 126°12'613.0
2018-Jun-19 01:00N 47°00' W 126°12'713.0
2018-Jun-19 00:30N 47°07' W 126°11'612.9
2018-Jun-19 00:00N 47°13' W 126°11'713.0
2018-Jun-18 23:30N 47°20' W 126°11'613.0
2018-Jun-18 23:00N 47°26' W 126°10'713.1
2018-Jun-18 22:30N 47°33' W 126°10'713.2
2018-Jun-18 22:00N 47°39' W 126°10'712.8
2018-Jun-18 21:29N 47°46' W 126°07'613.0
2018-Jun-18 21:00N 47°52' W 126°05'613.0
2018-Jun-18 20:30N 47°58' W 126°02'612.9
2018-Jun-18 20:00N 48°04' W 125°59'713.1
2018-Jun-18 19:30N 48°10' W 125°56'612.9
2018-Jun-18 19:00N 48°16' W 125°53'713.1
2018-Jun-18 18:30N 48°23' W 125°51'611.7
2018-Jun-18 18:00N 48°26' W 125°43'612.1
2018-Jun-18 17:30N 48°28' W 125°34'612.3
2018-Jun-18 17:00N 48°30' W 125°26'611.9
2018-Jun-18 16:30N 48°31' W 125°17'612.5
2018-Jun-18 16:00N 48°31' W 125°08'612.7
2018-Jun-18 15:30N 48°30' W 124°58'612.3
2018-Jun-18 15:00N 48°31' W 124°49'612.2
2018-Jun-18 14:30N 48°29' W 124°40'612.3
2018-Jun-18 14:00N 48°27' W 124°31'612.7
2018-Jun-18 13:30N 48°25' W 124°22'612.5
2018-Jun-18 13:00N 48°22' W 124°14'612.6
2018-Jun-18 12:30N 48°20' W 124°05'712.5
2018-Jun-18 11:59N 48°18' W 123°56'613.3
2018-Jun-18 11:30N 48°17' W 123°46'714.1
2018-Jun-18 11:00N 48°16' W 123°36'712.6
2018-Jun-18 10:25N 48°13' W 123°26'510.6
2018-Jun-18 09:59N 48°08' W 123°22'813.2
2018-Jun-18 09:22N 48°14' W 123°13'613.0
2018-Jun-18 08:56N 48°17' W 123°06'512.5
2018-Jun-18 08:30N 48°20' W 122°59'612.5
2018-Jun-18 08:00N 48°23' W 122°51'510.4
2018-Jun-18 07:30N 48°27' W 122°45'510.5
2018-Jun-18 07:00N 48°31' W 122°41'4 8.5
2018-Jun-18 06:30N 48°31' W 122°35'0 0.7
2018-Jun-18 05:56N 48°31' W 122°35'0 0.0
2018-Jun-18 05:20N 48°31' W 122°35'0 0.0
2018-Jun-18 04:56N 48°31' W 122°35'0 0.0
2018-Jun-18 04:26N 48°31' W 122°35'0 0.0
2018-Jun-18 03:56N 48°31' W 122°35'0 0.0
2018-Jun-18 03:26N 48°31' W 122°35'0 0.0
2018-Jun-18 02:56N 48°31' W 122°35'0 0.0
2018-Jun-18 02:26N 48°31' W 122°35'0 0.0
2018-Jun-18 01:50N 48°31' W 122°35'0 0.0
2018-Jun-18 01:26N 48°31' W 122°35'0 0.0
2018-Jun-18 00:56N 48°31' W 122°35'0 0.0
2018-Jun-18 00:20N 48°31' W 122°35'0 0.0
2018-Jun-17 23:56N 48°31' W 122°35'0 0.0
2018-Jun-17 23:20N 48°31' W 122°35'0 0.0
2018-Jun-17 22:50N 48°31' W 122°35'0 0.0
2018-Jun-17 22:26N 48°31' W 122°35'0 0.0
2018-Jun-17 21:56N 48°31' W 122°35'0 0.0
2018-Jun-17 21:26N 48°31' W 122°35'0 0.0
2018-Jun-17 20:50N 48°31' W 122°35'0 0.0
2018-Jun-17 20:26N 48°31' W 122°35'0 0.0
2018-Jun-17 19:56N 48°31' W 122°35'0 0.0
2018-Jun-17 19:26N 48°31' W 122°35'0 0.0
2018-Jun-17 18:56N 48°31' W 122°35'0 0.0
2018-Jun-17 18:26N 48°31' W 122°35'0 0.0
2018-Jun-17 17:44N 48°31' W 122°35'0 0.0
2018-Jun-17 17:20N 48°31' W 122°35'0 0.0
2018-Jun-17 16:56N 48°31' W 122°35'0 0.0
2018-Jun-17 16:26N 48°31' W 122°35'0 0.0
2018-Jun-17 15:56N 48°31' W 122°35'0 0.0
2018-Jun-17 15:26N 48°31' W 122°35'0 0.0
2018-Jun-17 14:56N 48°31' W 122°35'0 0.0
2018-Jun-17 14:14N 48°31' W 122°35'0 0.0
2018-Jun-17 13:56N 48°31' W 122°35'0 0.0
2018-Jun-17 13:30N 48°31' W 122°35'0 0.0
2018-Jun-17 13:00N 48°31' W 122°35'0 0.0
2018-Jun-17 12:28N 48°31' W 122°35'0 0.6
2018-Jun-17 12:00N 48°31' W 122°35'2 3.1
2018-Jun-17 11:30N 48°32' W 122°37'3 6.7
2018-Jun-17 11:00N 48°31' W 122°42'3 5.8
2018-Jun-17 10:30N 48°29' W 122°45'3 6.5
2018-Jun-17 10:00N 48°26' W 122°46'4 8.4
2018-Jun-17 09:30N 48°23' W 122°51'5 9.2
2018-Jun-17 09:00N 48°20' W 122°57'4 8.7
2018-Jun-17 08:30N 48°18' W 123°02'5 9.5
2018-Jun-17 08:00N 48°15' W 123°08'611.3
2018-Jun-17 07:30N 48°12' W 123°15'610.6
2018-Jun-17 06:58N 48°10' W 123°23'11 8.7
2018-Jun-17 05:42N 48°13' W 123°39'311.0
2018-Jun-17 05:25N 48°13' W 123°44'510.6
2018-Jun-17 04:59N 48°13' W 123°51'510.9
2018-Jun-17 04:30N 48°14' W 123°58'611.8
2018-Jun-17 04:00N 48°17' W 124°06'612.1
2018-Jun-17 03:30N 48°20' W 124°14'612.4
2018-Jun-17 03:00N 48°22' W 124°23'612.1
2018-Jun-17 02:30N 48°25' W 124°31'712.7
2018-Jun-17 01:59N 48°28' W 124°40'611.6
2018-Jun-17 01:30N 48°29' W 124°48'611.2
2018-Jun-17 01:00N 48°29' W 124°57'612.4
2018-Jun-17 00:30N 48°29' W 125°06'713.1
2018-Jun-17 00:00N 48°28' W 125°16'612.6
2018-Jun-16 23:29N 48°27' W 125°26'611.5
2018-Jun-16 23:00N 48°28' W 125°34'611.6
2018-Jun-16 22:30N 48°28' W 125°43'612.0
2018-Jun-16 22:00N 48°28' W 125°52'611.6
2018-Jun-16 21:30N 48°28' W 126°01'611.8
2018-Jun-16 21:00N 48°29' W 126°10'612.4
2018-Jun-16 20:30N 48°29' W 126°19'612.7
2018-Jun-16 20:00N 48°29' W 126°28'612.5
2018-Jun-16 19:30N 48°29' W 126°38'612.7
2018-Jun-16 19:00N 48°30' W 126°47'612.7
2018-Jun-16 18:30N 48°30' W 126°57'611.5
2018-Jun-16 18:00N 48°31' W 127°06'2 4.8
2018-Jun-16 17:30N 48°30' W 127°09'611.6
2018-Jun-16 17:00N 48°30' W 127°18'1112.7
2018-Jun-16 16:06N 48°30' W 127°35'2212.2
2018-Jun-16 14:17N 48°31' W 128°09'  
Track history (hours):
 
Tides and Currents Weather Stations Pressure Air Temp Water Temp Dewpoint Dewpoint Depression Visibility Wind Speed Wind Dir Waves Ship Positions

Serene Sea

Last reported at 2018-Jun-21 17:45 UTC. Time now 2018-Jun-21 18:04 UTC.
Position N 37°32' W 123°27'.

Length 229 m; draft 9.2 m.

Type: Tanker. MMSI: 636016696.

Date/timePositionNaut miles runAvg speedWind from/ knotsBaromVisibWave heightAir tempDewpointWater temp
2018-Jun-21 17:45N 37°32' W 123°27'0 1.3
2018-Jun-21 17:25N 37°32' W 123°27'1 1.3
2018-Jun-21 17:00N 37°32' W 123°28'1 1.4
2018-Jun-21 16:30N 37°32' W 123°29'1 1.3
2018-Jun-21 16:00N 37°32' W 123°30'1 1.3
2018-Jun-21 15:30N 37°32' W 123°31'1 1.3
2018-Jun-21 15:00N 37°32' W 123°31'1 1.3
2018-Jun-21 14:28N 37°32' W 123°32'1 1.2
2018-Jun-21 14:00N 37°33' W 123°33'1 1.2
2018-Jun-21 13:30N 37°33' W 123°34'2 3.8
2018-Jun-21 13:00N 37°31' W 123°33'4 8.8
2018-Jun-21 12:30N 37°27' W 123°29'6 8.8
2018-Jun-21 11:50N 37°23' W 123°24'4 8.7
2018-Jun-21 11:21N 37°20' W 123°21'2 6.3
2018-Jun-21 11:00N 37°18' W 123°19'1 1.6
2018-Jun-21 10:26N 37°18' W 123°18'1 1.5
2018-Jun-21 10:00N 37°19' W 123°18'1 1.6
2018-Jun-21 09:30N 37°20' W 123°17'1 1.5
2018-Jun-21 09:00N 37°20' W 123°17'1 1.7
2018-Jun-21 08:30N 37°21' W 123°16'1 1.8
2018-Jun-21 08:00N 37°22' W 123°16'1 1.8
2018-Jun-21 07:30N 37°22' W 123°15'1 1.9
2018-Jun-21 07:00N 37°23' W 123°15'1 1.9
2018-Jun-21 06:30N 37°24' W 123°14'1 1.9
2018-Jun-21 06:00N 37°25' W 123°14'1 1.9
2018-Jun-21 05:30N 37°26' W 123°13'1 1.8
2018-Jun-21 04:58N 37°27' W 123°12'1 2.6
2018-Jun-21 04:27N 37°28' W 123°13'4 9.6
2018-Jun-21 04:00N 37°28' W 123°19'5 9.7
2018-Jun-21 03:29N 37°28' W 123°25'5 9.8
2018-Jun-21 03:00N 37°28' W 123°31'5 9.9
2018-Jun-21 02:30N 37°28' W 123°37'5 8.9
2018-Jun-21 01:59N 37°30' W 123°42'510.1
2018-Jun-21 01:29N 37°35' W 123°45'510.1
2018-Jun-21 01:00N 37°39' W 123°48'5 9.8
2018-Jun-21 00:30N 37°43' W 123°52'510.2
2018-Jun-21 00:00N 37°47' W 123°55'510.3
2018-Jun-20 23:30N 37°52' W 123°59'510.6
2018-Jun-20 23:00N 37°56' W 124°02'510.8
2018-Jun-20 22:30N 38°01' W 124°06'510.4
2018-Jun-20 21:59N 38°06' W 124°09'510.1
2018-Jun-20 21:30N 38°10' W 124°12'510.1
2018-Jun-20 21:00N 38°14' W 124°16'510.3
2018-Jun-20 20:30N 38°18' W 124°19'510.6
2018-Jun-20 20:00N 38°23' W 124°22'510.7
2018-Jun-20 19:30N 38°28' W 124°26'510.6
2018-Jun-20 19:00N 38°32' W 124°30'510.1
2018-Jun-20 18:30N 38°36' W 124°33'30 8.7
2018-Jun-20 15:03N 39°02' W 124°53'612.6
2018-Jun-20 14:33N 39°07' W 124°57'312.4
2018-Jun-20 14:21N 39°09' W 124°59'912.4
2018-Jun-20 13:37N 39°17' W 125°05'312.4
2018-Jun-20 13:21N 39°20' W 125°07'812.0
2018-Jun-20 12:40N 39°27' W 125°13'211.9
2018-Jun-20 12:30N 39°29' W 125°14'1312.1
2018-Jun-20 11:25N 39°40' W 125°23'512.4
2018-Jun-20 11:00N 39°44' W 125°27'712.1
2018-Jun-20 10:25N 39°51' W 125°28'1712.1
2018-Jun-20 09:00N 40°08' W 125°30'16712.6
2018-Jun-19 19:46N 42°54' W 125°53'313.3
2018-Jun-19 19:30N 42°57' W 125°54'813.4
2018-Jun-19 18:56N 43°05' W 125°55'612.9
2018-Jun-19 18:30N 43°11' W 125°56'1013.3
2018-Jun-19 17:45N 43°20' W 125°57'313.1
2018-Jun-19 17:30N 43°24' W 125°58'713.1
2018-Jun-19 17:00N 43°30' W 125°59'1213.3
2018-Jun-19 16:07N 43°42' W 126°01'113.5
2018-Jun-19 16:00N 43°43' W 126°01'1013.0
2018-Jun-19 15:15N 43°53' W 126°03'313.0
2018-Jun-19 15:00N 43°56' W 126°03'913.4
2018-Jun-19 14:22N 44°05' W 126°04'513.8
2018-Jun-19 14:00N 44°10' W 126°05'713.3
2018-Jun-19 13:30N 44°16' W 126°06'612.8
2018-Jun-19 13:00N 44°23' W 126°07'713.1
2018-Jun-19 12:30N 44°29' W 126°08'713.1
2018-Jun-19 12:00N 44°36' W 126°08'713.3
2018-Jun-19 11:28N 44°43' W 126°09'612.9
2018-Jun-19 11:00N 44°49' W 126°10'712.9
2018-Jun-19 10:29N 44°55' W 126°11'613.2
2018-Jun-19 10:00N 45°02' W 126°12'713.1
2018-Jun-19 09:30N 45°08' W 126°12'713.0
2018-Jun-19 09:00N 45°15' W 126°12'613.0
2018-Jun-19 08:30N 45°21' W 126°12'612.9
2018-Jun-19 08:00N 45°28' W 126°12'713.1
2018-Jun-19 07:30N 45°34' W 126°12'713.5
2018-Jun-19 06:59N 45°41' W 126°12'613.3
2018-Jun-19 06:30N 45°48' W 126°12'713.6
2018-Jun-19 06:00N 45°54' W 126°12'713.5
2018-Jun-19 05:30N 46°01' W 126°12'713.3
2018-Jun-19 05:00N 46°08' W 126°12'913.4
2018-Jun-19 04:18N 46°17' W 126°12'413.3
2018-Jun-19 04:00N 46°21' W 126°12'613.0
2018-Jun-19 03:30N 46°28' W 126°12'612.9
2018-Jun-19 03:00N 46°34' W 126°12'613.0
2018-Jun-19 02:30N 46°41' W 126°12'713.0
2018-Jun-19 01:59N 46°48' W 126°12'612.9
2018-Jun-19 01:30N 46°54' W 126°12'613.0
2018-Jun-19 01:00N 47°00' W 126°12'713.0
2018-Jun-19 00:30N 47°07' W 126°11'612.9
2018-Jun-19 00:00N 47°13' W 126°11'713.0
2018-Jun-18 23:30N 47°20' W 126°11'613.0
2018-Jun-18 23:00N 47°26' W 126°10'713.1
2018-Jun-18 22:30N 47°33' W 126°10'713.2
2018-Jun-18 22:00N 47°39' W 126°10'712.8
2018-Jun-18 21:29N 47°46' W 126°07'613.0
2018-Jun-18 21:00N 47°52' W 126°05'613.0
2018-Jun-18 20:30N 47°58' W 126°02'612.9
2018-Jun-18 20:00N 48°04' W 125°59'713.1
2018-Jun-18 19:30N 48°10' W 125°56'612.9
2018-Jun-18 19:00N 48°16' W 125°53'713.1
2018-Jun-18 18:30N 48°23' W 125°51'611.7
2018-Jun-18 18:00N 48°26' W 125°43'612.1
2018-Jun-18 17:30N 48°28' W 125°34'612.3
2018-Jun-18 17:00N 48°30' W 125°26'611.9
2018-Jun-18 16:30N 48°31' W 125°17'612.5
2018-Jun-18 16:00N 48°31' W 125°08'612.7
2018-Jun-18 15:30N 48°30' W 124°58'612.3
2018-Jun-18 15:00N 48°31' W 124°49'612.2
2018-Jun-18 14:30N 48°29' W 124°40'612.3
2018-Jun-18 14:00N 48°27' W 124°31'612.7
2018-Jun-18 13:30N 48°25' W 124°22'612.5
2018-Jun-18 13:00N 48°22' W 124°14'612.6
2018-Jun-18 12:30N 48°20' W 124°05'712.5
2018-Jun-18 11:59N 48°18' W 123°56'613.3
2018-Jun-18 11:30N 48°17' W 123°46'714.1
2018-Jun-18 11:00N 48°16' W 123°36'712.6
2018-Jun-18 10:25N 48°13' W 123°26'510.6
2018-Jun-18 09:59N 48°08' W 123°22'813.2
2018-Jun-18 09:22N 48°14' W 123°13'613.0
2018-Jun-18 08:56N 48°17' W 123°06'512.5
2018-Jun-18 08:30N 48°20' W 122°59'612.5
2018-Jun-18 08:00N 48°23' W 122°51'510.4
2018-Jun-18 07:30N 48°27' W 122°45'510.5
2018-Jun-18 07:00N 48°31' W 122°41'4 8.5
2018-Jun-18 06:30N 48°31' W 122°35'0 0.7
2018-Jun-18 05:56N 48°31' W 122°35'0 0.0
2018-Jun-18 05:20N 48°31' W 122°35'0 0.0
2018-Jun-18 04:56N 48°31' W 122°35'0 0.0
2018-Jun-18 04:26N 48°31' W 122°35'0 0.0
2018-Jun-18 03:56N 48°31' W 122°35'0 0.0
2018-Jun-18 03:26N 48°31' W 122°35'0 0.0
2018-Jun-18 02:56N 48°31' W 122°35'0 0.0
2018-Jun-18 02:26N 48°31' W 122°35'0 0.0
2018-Jun-18 01:50N 48°31' W 122°35'0 0.0
2018-Jun-18 01:26N 48°31' W 122°35'0 0.0
2018-Jun-18 00:56N 48°31' W 122°35'0 0.0
2018-Jun-18 00:20N 48°31' W 122°35'0 0.0
2018-Jun-17 23:56N 48°31' W 122°35'0 0.0
2018-Jun-17 23:20N 48°31' W 122°35'0 0.0
2018-Jun-17 22:50N 48°31' W 122°35'0 0.0
2018-Jun-17 22:26N 48°31' W 122°35'0 0.0
2018-Jun-17 21:56N 48°31' W 122°35'0 0.0
2018-Jun-17 21:26N 48°31' W 122°35'0 0.0
2018-Jun-17 20:50N 48°31' W 122°35'0 0.0
2018-Jun-17 20:26N 48°31' W 122°35'0 0.0
2018-Jun-17 19:56N 48°31' W 122°35'0 0.0
2018-Jun-17 19:26N 48°31' W 122°35'0 0.0
2018-Jun-17 18:56N 48°31' W 122°35'0 0.0
2018-Jun-17 18:26N 48°31' W 122°35'0 0.0
2018-Jun-17 17:44N 48°31' W 122°35'0 0.0
2018-Jun-17 17:20N 48°31' W 122°35'0 0.0
2018-Jun-17 16:56N 48°31' W 122°35'0 0.0
2018-Jun-17 16:26N 48°31' W 122°35'0 0.0
2018-Jun-17 15:56N 48°31' W 122°35'0 0.0
2018-Jun-17 15:26N 48°31' W 122°35'0 0.0
2018-Jun-17 14:56N 48°31' W 122°35'0 0.0
2018-Jun-17 14:14N 48°31' W 122°35'0 0.0
2018-Jun-17 13:56N 48°31' W 122°35'0 0.0
2018-Jun-17 13:30N 48°31' W 122°35'0 0.0
2018-Jun-17 13:00N 48°31' W 122°35'0 0.0
2018-Jun-17 12:28N 48°31' W 122°35'0 0.6
2018-Jun-17 12:00N 48°31' W 122°35'2 3.1
2018-Jun-17 11:30N 48°32' W 122°37'3 6.7
2018-Jun-17 11:00N 48°31' W 122°42'3 5.8
2018-Jun-17 10:30N 48°29' W 122°45'3 6.5
2018-Jun-17 10:00N 48°26' W 122°46'4 8.4
2018-Jun-17 09:30N 48°23' W 122°51'5 9.2
2018-Jun-17 09:00N 48°20' W 122°57'4 8.7
2018-Jun-17 08:30N 48°18' W 123°02'5 9.5
2018-Jun-17 08:00N 48°15' W 123°08'611.3
2018-Jun-17 07:30N 48°12' W 123°15'610.6
2018-Jun-17 06:58N 48°10' W 123°23'11 8.7
2018-Jun-17 05:42N 48°13' W 123°39'311.0
2018-Jun-17 05:25N 48°13' W 123°44'510.6
2018-Jun-17 04:59N 48°13' W 123°51'510.9
2018-Jun-17 04:30N 48°14' W 123°58'611.8
2018-Jun-17 04:00N 48°17' W 124°06'612.1
2018-Jun-17 03:30N 48°20' W 124°14'612.4
2018-Jun-17 03:00N 48°22' W 124°23'612.1
2018-Jun-17 02:30N 48°25' W 124°31'712.7
2018-Jun-17 01:59N 48°28' W 124°40'611.6
2018-Jun-17 01:30N 48°29' W 124°48'611.2
2018-Jun-17 01:00N 48°29' W 124°57'612.4
2018-Jun-17 00:30N 48°29' W 125°06'713.1
2018-Jun-17 00:00N 48°28' W 125°16'612.6
2018-Jun-16 23:29N 48°27' W 125°26'611.5
2018-Jun-16 23:00N 48°28' W 125°34'611.6
2018-Jun-16 22:30N 48°28' W 125°43'612.0
2018-Jun-16 22:00N 48°28' W 125°52'611.6
2018-Jun-16 21:30N 48°28' W 126°01'611.8
2018-Jun-16 21:00N 48°29' W 126°10'612.4
2018-Jun-16 20:30N 48°29' W 126°19'612.7
2018-Jun-16 20:00N 48°29' W 126°28'612.5
2018-Jun-16 19:30N 48°29' W 126°38'612.7
2018-Jun-16 19:00N 48°30' W 126°47'612.7
2018-Jun-16 18:30N 48°30' W 126°57'611.5
2018-Jun-16 18:00N 48°31' W 127°06'2 4.8
2018-Jun-16 17:30N 48°30' W 127°09'611.6
2018-Jun-16 17:00N 48°30' W 127°18'1112.7
2018-Jun-16 16:06N 48°30' W 127°35'2212.2
2018-Jun-16 14:17N 48°31' W 128°09'  

Dump ship's entire track history